sensor_id;sensor_type;location;lat;lon;timestamp;pressure;altitude;pressure_sealevel;temperature
32039;BMP280;18549;42.286;22.688;2022-09-13T00:01:57;95514.59;;;19.58
32039;BMP280;18549;42.286;22.688;2022-09-13T00:04:25;95508.72;;;19.50
32039;BMP280;18549;42.286;22.688;2022-09-13T00:06:53;95502.25;;;19.40
32039;BMP280;18549;42.286;22.688;2022-09-13T00:09:21;95507.59;;;19.37
32039;BMP280;18549;42.286;22.688;2022-09-13T00:11:50;95502.38;;;19.30
32039;BMP280;18549;42.286;22.688;2022-09-13T00:14:18;95506.16;;;19.26
32039;BMP280;18549;42.286;22.688;2022-09-13T00:16:45;95503.00;;;19.24
32039;BMP280;18549;42.286;22.688;2022-09-13T00:19:14;95500.47;;;19.24
32039;BMP280;18549;42.286;22.688;2022-09-13T00:21:42;95494.19;;;19.28
32039;BMP280;18549;42.286;22.688;2022-09-13T00:24:10;95495.13;;;19.27
32039;BMP280;18549;42.286;22.688;2022-09-13T00:26:40;95490.56;;;19.23
32039;BMP280;18549;42.286;22.688;2022-09-13T00:29:11;95494.63;;;19.24
32039;BMP280;18549;42.286;22.688;2022-09-13T00:31:40;95493.72;;;19.25
32039;BMP280;18549;42.286;22.688;2022-09-13T00:34:07;95491.06;;;19.26
32039;BMP280;18549;42.286;22.688;2022-09-13T00:36:35;95503.47;;;19.28
32039;BMP280;18549;42.286;22.688;2022-09-13T00:39:02;95500.62;;;19.23
32039;BMP280;18549;42.286;22.688;2022-09-13T00:41:30;95498.88;;;19.23
32039;BMP280;18549;42.286;22.688;2022-09-13T00:43:59;95510.00;;;19.13
32039;BMP280;18549;42.286;22.688;2022-09-13T00:46:33;95500.00;;;18.96
32039;BMP280;18549;42.286;22.688;2022-09-13T00:49:10;95498.53;;;18.85
32039;BMP280;18549;42.286;22.688;2022-09-13T00:51:41;95502.13;;;18.83
32039;BMP280;18549;42.286;22.688;2022-09-13T00:54:09;95502.56;;;18.79
32039;BMP280;18549;42.286;22.688;2022-09-13T00:56:43;95491.28;;;18.83
32039;BMP280;18549;42.286;22.688;2022-09-13T00:59:16;95494.22;;;18.78
32039;BMP280;18549;42.286;22.688;2022-09-13T01:01:50;95486.09;;;18.76
32039;BMP280;18549;42.286;22.688;2022-09-13T01:04:20;95494.09;;;18.80
32039;BMP280;18549;42.286;22.688;2022-09-13T01:06:50;95492.34;;;18.80
32039;BMP280;18549;42.286;22.688;2022-09-13T01:09:19;95503.69;;;18.84
32039;BMP280;18549;42.286;22.688;2022-09-13T01:11:49;95499.94;;;18.88
32039;BMP280;18549;42.286;22.688;2022-09-13T01:14:26;95500.75;;;18.88
32039;BMP280;18549;42.286;22.688;2022-09-13T01:16:55;95488.97;;;18.89
32039;BMP280;18549;42.286;22.688;2022-09-13T01:19:24;95489.59;;;18.91
32039;BMP280;18549;42.286;22.688;2022-09-13T01:28:40;95492.09;;;18.83
32039;BMP280;18549;42.286;22.688;2022-09-13T01:31:17;95487.97;;;18.82
32039;BMP280;18549;42.286;22.688;2022-09-13T01:33:58;95490.50;;;18.82
32039;BMP280;18549;42.286;22.688;2022-09-13T01:36:53;95483.47;;;18.85
32039;BMP280;18549;42.286;22.688;2022-09-13T01:39:30;95484.88;;;18.88
32039;BMP280;18549;42.286;22.688;2022-09-13T01:42:09;95485.47;;;18.82
32039;BMP280;18549;42.286;22.688;2022-09-13T01:44:51;95477.94;;;18.82
32039;BMP280;18549;42.286;22.688;2022-09-13T01:47:26;95476.38;;;18.81
32039;BMP280;18549;42.286;22.688;2022-09-13T01:50:12;95479.81;;;18.80
32039;BMP280;18549;42.286;22.688;2022-09-13T01:52:48;95476.66;;;18.78
32039;BMP280;18549;42.286;22.688;2022-09-13T01:55:23;95477.59;;;18.77
32039;BMP280;18549;42.286;22.688;2022-09-13T01:57:58;95468.34;;;18.78
32039;BMP280;18549;42.286;22.688;2022-09-13T02:00:31;95471.00;;;18.76
32039;BMP280;18549;42.286;22.688;2022-09-13T02:03:04;95473.03;;;18.73
32039;BMP280;18549;42.286;22.688;2022-09-13T02:05:37;95471.94;;;18.75
32039;BMP280;18549;42.286;22.688;2022-09-13T02:08:09;95470.22;;;18.76
32039;BMP280;18549;42.286;22.688;2022-09-13T02:10:41;95474.44;;;18.75
32039;BMP280;18549;42.286;22.688;2022-09-13T02:13:13;95467.66;;;18.68
32039;BMP280;18549;42.286;22.688;2022-09-13T02:15:45;95468.75;;;18.65
32039;BMP280;18549;42.286;22.688;2022-09-13T02:18:19;95477.84;;;18.66
32039;BMP280;18549;42.286;22.688;2022-09-13T02:20:50;95474.22;;;18.61
32039;BMP280;18549;42.286;22.688;2022-09-13T02:23:24;95475.44;;;18.57
32039;BMP280;18549;42.286;22.688;2022-09-13T02:25:54;95479.66;;;18.56
32039;BMP280;18549;42.286;22.688;2022-09-13T02:28:26;95467.44;;;18.53
32039;BMP280;18549;42.286;22.688;2022-09-13T02:30:57;95469.09;;;18.45
32039;BMP280;18549;42.286;22.688;2022-09-13T02:33:29;95460.28;;;18.41
32039;BMP280;18549;42.286;22.688;2022-09-13T02:36:00;95461.84;;;18.42
32039;BMP280;18549;42.286;22.688;2022-09-13T02:38:31;95470.66;;;18.46
32039;BMP280;18549;42.286;22.688;2022-09-13T02:41:05;95472.25;;;18.47
32039;BMP280;18549;42.286;22.688;2022-09-13T02:43:38;95471.56;;;18.37
32039;BMP280;18549;42.286;22.688;2022-09-13T02:49:05;95465.81;;;18.27
32039;BMP280;18549;42.286;22.688;2022-09-13T02:51:43;95461.09;;;18.24
32039;BMP280;18549;42.286;22.688;2022-09-13T02:54:18;95464.69;;;18.22
32039;BMP280;18549;42.286;22.688;2022-09-13T02:56:53;95465.59;;;18.21
32039;BMP280;18549;42.286;22.688;2022-09-13T02:59:24;95459.16;;;18.18
32039;BMP280;18549;42.286;22.688;2022-09-13T03:01:56;95460.09;;;18.17
32039;BMP280;18549;42.286;22.688;2022-09-13T03:04:26;95463.09;;;18.21
32039;BMP280;18549;42.286;22.688;2022-09-13T03:06:55;95462.47;;;18.19
32039;BMP280;18549;42.286;22.688;2022-09-13T03:09:24;95471.56;;;18.20
32039;BMP280;18549;42.286;22.688;2022-09-13T03:12:10;95467.75;;;18.16
32039;BMP280;18549;42.286;22.688;2022-09-13T03:14:47;95468.72;;;18.15
32039;BMP280;18549;42.286;22.688;2022-09-13T03:17:31;95472.34;;;18.20
32039;BMP280;18549;42.286;22.688;2022-09-13T03:20:14;95467.75;;;18.16
32039;BMP280;18549;42.286;22.688;2022-09-13T03:23:11;95465.44;;;18.15
32039;BMP280;18549;42.286;22.688;2022-09-13T03:25:57;95459.91;;;18.11
32039;BMP280;18549;42.286;22.688;2022-09-13T03:28:33;95472.13;;;18.14
32039;BMP280;18549;42.286;22.688;2022-09-13T03:31:06;95468.19;;;18.12
32039;BMP280;18549;42.286;22.688;2022-09-13T03:33:41;95479.41;;;18.17
32039;BMP280;18549;42.286;22.688;2022-09-13T03:36:16;95471.56;;;18.20
32039;BMP280;18549;42.286;22.688;2022-09-13T03:38:52;95476.06;;;18.17
32039;BMP280;18549;42.286;22.688;2022-09-13T03:41:24;95468.06;;;18.13
32039;BMP280;18549;42.286;22.688;2022-09-13T03:43:54;95473.87;;;18.14
32039;BMP280;18549;42.286;22.688;2022-09-13T03:46:28;95490.63;;;18.13
32039;BMP280;18549;42.286;22.688;2022-09-13T03:48:59;95483.84;;;18.06
32039;BMP280;18549;42.286;22.688;2022-09-13T03:51:30;95476.72;;;18.01
32039;BMP280;18549;42.286;22.688;2022-09-13T03:54:00;95486.41;;;17.96
32039;BMP280;18549;42.286;22.688;2022-09-13T03:56:29;95492.97;;;17.97
32039;BMP280;18549;42.286;22.688;2022-09-13T03:58:57;95490.59;;;17.96
32039;BMP280;18549;42.286;22.688;2022-09-13T04:01:24;95488.91;;;17.96
32039;BMP280;18549;42.286;22.688;2022-09-13T04:03:52;95493.28;;;17.94
32039;BMP280;18549;42.286;22.688;2022-09-13T04:06:20;95496.63;;;17.85
32039;BMP280;18549;42.286;22.688;2022-09-13T04:08:49;95493.25;;;17.77
32039;BMP280;18549;42.286;22.688;2022-09-13T04:11:17;95501.50;;;17.70
32039;BMP280;18549;42.286;22.688;2022-09-13T04:13:46;95507.06;;;17.64
32039;BMP280;18549;42.286;22.688;2022-09-13T04:16:13;95505.50;;;17.63
32039;BMP280;18549;42.286;22.688;2022-09-13T04:18:41;95503.75;;;17.63
32039;BMP280;18549;42.286;22.688;2022-09-13T04:21:08;95500.78;;;17.60
32039;BMP280;18549;42.286;22.688;2022-09-13T04:23:36;95498.81;;;17.54
32039;BMP280;18549;42.286;22.688;2022-09-13T04:26:05;95499.22;;;17.50
32039;BMP280;18549;42.286;22.688;2022-09-13T04:28:33;95500.66;;;17.52
32039;BMP280;18549;42.286;22.688;2022-09-13T04:31:00;95501.75;;;17.50
32039;BMP280;18549;42.286;22.688;2022-09-13T04:33:29;95502.53;;;17.50
32039;BMP280;18549;42.286;22.688;2022-09-13T04:35:59;95504.78;;;17.53
32039;BMP280;18549;42.286;22.688;2022-09-13T04:38:27;95501.69;;;17.59
32039;BMP280;18549;42.286;22.688;2022-09-13T04:40:56;95497.63;;;17.58
32039;BMP280;18549;42.286;22.688;2022-09-13T04:43:25;95499.47;;;17.56
32039;BMP280;18549;42.286;22.688;2022-09-13T04:45:52;95497.31;;;17.61
32039;BMP280;18549;42.286;22.688;2022-09-13T04:48:20;95502.03;;;17.64
32039;BMP280;18549;42.286;22.688;2022-09-13T04:50:47;95506.50;;;17.70
32039;BMP280;18549;42.286;22.688;2022-09-13T04:53:15;95497.78;;;17.74
32039;BMP280;18549;42.286;22.688;2022-09-13T04:55:43;95505.66;;;17.79
32039;BMP280;18549;42.286;22.688;2022-09-13T04:58:10;95501.94;;;17.83
32039;BMP280;18549;42.286;22.688;2022-09-13T05:00:39;95513.19;;;17.79
32039;BMP280;18549;42.286;22.688;2022-09-13T05:03:07;95504.72;;;17.80
32039;BMP280;18549;42.286;22.688;2022-09-13T05:05:34;95507.56;;;17.84
32039;BMP280;18549;42.286;22.688;2022-09-13T05:08:02;95499.69;;;17.80
32039;BMP280;18549;42.286;22.688;2022-09-13T05:10:29;95496.94;;;17.83
32039;BMP280;18549;42.286;22.688;2022-09-13T05:12:57;95501.66;;;17.85
32039;BMP280;18549;42.286;22.688;2022-09-13T05:15:24;95495.63;;;17.79
32039;BMP280;18549;42.286;22.688;2022-09-13T05:17:53;95507.44;;;17.69
32039;BMP280;18549;42.286;22.688;2022-09-13T05:20:20;95505.44;;;17.72
32039;BMP280;18549;42.286;22.688;2022-09-13T05:22:48;95504.72;;;17.80
32039;BMP280;18549;42.286;22.688;2022-09-13T05:25:15;95504.66;;;17.89
32039;BMP280;18549;42.286;22.688;2022-09-13T05:27:44;95506.16;;;17.99
32039;BMP280;18549;42.286;22.688;2022-09-13T05:30:12;95503.91;;;18.06
32039;BMP280;18549;42.286;22.688;2022-09-13T05:32:40;95509.72;;;18.06
32039;BMP280;18549;42.286;22.688;2022-09-13T05:35:09;95506.59;;;17.95
32039;BMP280;18549;42.286;22.688;2022-09-13T05:37:37;95514.25;;;17.93
32039;BMP280;18549;42.286;22.688;2022-09-13T05:40:06;95513.88;;;17.88
32039;BMP280;18549;42.286;22.688;2022-09-13T05:42:34;95514.31;;;17.84
32039;BMP280;18549;42.286;22.688;2022-09-13T05:45:03;95507.44;;;17.86
32039;BMP280;18549;42.286;22.688;2022-09-13T05:47:32;95519.84;;;17.87
32039;BMP280;18549;42.286;22.688;2022-09-13T05:49:59;95517.34;;;17.87
32039;BMP280;18549;42.286;22.688;2022-09-13T05:52:28;95520.50;;;17.89
32039;BMP280;18549;42.286;22.688;2022-09-13T05:54:56;95516.09;;;17.91
32039;BMP280;18549;42.286;22.688;2022-09-13T05:57:23;95520.84;;;17.94
32039;BMP280;18549;42.286;22.688;2022-09-13T05:59:51;95517.28;;;17.97
32039;BMP280;18549;42.286;22.688;2022-09-13T06:02:18;95520.91;;;18.02
32039;BMP280;18549;42.286;22.688;2022-09-13T06:04:46;95518.97;;;18.06
32039;BMP280;18549;42.286;22.688;2022-09-13T06:07:15;95512.47;;;18.03
32039;BMP280;18549;42.286;22.688;2022-09-13T06:09:44;95520.53;;;18.07
32039;BMP280;18549;42.286;22.688;2022-09-13T06:12:12;95507.56;;;18.11
32039;BMP280;18549;42.286;22.688;2022-09-13T06:14:39;95510.19;;;18.10
32039;BMP280;18549;42.286;22.688;2022-09-13T06:17:07;95514.44;;;18.09
32039;BMP280;18549;42.286;22.688;2022-09-13T06:19:34;95518.22;;;18.13
32039;BMP280;18549;42.286;22.688;2022-09-13T06:22:02;95516.22;;;18.17
32039;BMP280;18549;42.286;22.688;2022-09-13T06:24:29;95523.59;;;18.18
32039;BMP280;18549;42.286;22.688;2022-09-13T06:26:59;95515.94;;;18.19
32039;BMP280;18549;42.286;22.688;2022-09-13T06:29:28;95519.59;;;18.25
32039;BMP280;18549;42.286;22.688;2022-09-13T06:31:55;95524.31;;;18.28
32039;BMP280;18549;42.286;22.688;2022-09-13T06:34:22;95525.25;;;18.27
32039;BMP280;18549;42.286;22.688;2022-09-13T06:36:50;95526.81;;;18.28
32039;BMP280;18549;42.286;22.688;2022-09-13T06:39:17;95522.31;;;18.31
32039;BMP280;18549;42.286;22.688;2022-09-13T06:41:45;95515.91;;;18.37
32039;BMP280;18549;42.286;22.688;2022-09-13T06:44:14;95516.00;;;18.45
32039;BMP280;18549;42.286;22.688;2022-09-13T06:46:42;95523.56;;;18.52
32039;BMP280;18549;42.286;22.688;2022-09-13T06:49:10;95517.31;;;18.56
32039;BMP280;18549;42.286;22.688;2022-09-13T06:51:37;95528.94;;;18.57
32039;BMP280;18549;42.286;22.688;2022-09-13T06:54:10;95517.31;;;18.56
32039;BMP280;18549;42.286;22.688;2022-09-13T06:56:39;95517.53;;;18.63
32039;BMP280;18549;42.286;22.688;2022-09-13T06:59:15;95517.09;;;18.67
32039;BMP280;18549;42.286;22.688;2022-09-13T07:01:44;95522.16;;;18.75
32039;BMP280;18549;42.286;22.688;2022-09-13T07:04:14;95521.81;;;18.70
32039;BMP280;18549;42.286;22.688;2022-09-13T07:06:57;95527.50;;;18.80
32039;BMP280;18549;42.286;22.688;2022-09-13T07:09:52;95519.87;;;18.89
32039;BMP280;18549;42.286;22.688;2022-09-13T07:12:23;95515.59;;;18.99
32039;BMP280;18549;42.286;22.688;2022-09-13T07:14:58;95517.03;;;19.10
32039;BMP280;18549;42.286;22.688;2022-09-13T07:17:28;95521.63;;;19.14
32039;BMP280;18549;42.286;22.688;2022-09-13T07:19:56;95528.84;;;19.17
32039;BMP280;18549;42.286;22.688;2022-09-13T07:22:24;95520.25;;;19.19
32039;BMP280;18549;42.286;22.688;2022-09-13T07:24:52;95521.81;;;19.20
32039;BMP280;18549;42.286;22.688;2022-09-13T07:27:20;95527.47;;;19.22
32039;BMP280;18549;42.286;22.688;2022-09-13T07:29:47;95524.00;;;19.23
32039;BMP280;18549;42.286;22.688;2022-09-13T07:32:16;95519.63;;;19.25
32039;BMP280;18549;42.286;22.688;2022-09-13T07:34:44;95531.28;;;19.26
32039;BMP280;18549;42.286;22.688;2022-09-13T07:37:12;95523.44;;;19.29
32039;BMP280;18549;42.286;22.688;2022-09-13T07:39:39;95528.47;;;19.37
32039;BMP280;18549;42.286;22.688;2022-09-13T07:42:07;95510.94;;;19.45
32039;BMP280;18549;42.286;22.688;2022-09-13T07:44:35;95514.84;;;19.48
32039;BMP280;18549;42.286;22.688;2022-09-13T07:47:02;95516.28;;;19.58
32039;BMP280;18549;42.286;22.688;2022-09-13T07:49:34;95516.78;;;19.69
32039;BMP280;18549;42.286;22.688;2022-09-13T07:52:03;95517.94;;;19.75
32039;BMP280;18549;42.286;22.688;2022-09-13T07:54:31;95515.44;;;19.83
32039;BMP280;18549;42.286;22.688;2022-09-13T07:57:01;95514.06;;;19.88
32039;BMP280;18549;42.286;22.688;2022-09-13T07:59:29;95503.03;;;19.97
32039;BMP280;18549;42.286;22.688;2022-09-13T08:01:56;95503.87;;;20.13
32039;BMP280;18549;42.286;22.688;2022-09-13T08:04:24;95503.25;;;20.27
32039;BMP280;18549;42.286;22.688;2022-09-13T08:06:53;95501.03;;;20.40
32039;BMP280;18549;42.286;22.688;2022-09-13T08:09:21;95500.72;;;20.50
32039;BMP280;18549;42.286;22.688;2022-09-13T08:11:50;95497.28;;;20.59
32039;BMP280;18549;42.286;22.688;2022-09-13T08:14:19;95493.34;;;20.65
32039;BMP280;18549;42.286;22.688;2022-09-13T08:16:47;95500.59;;;20.68
32039;BMP280;18549;42.286;22.688;2022-09-13T08:19:16;95502.75;;;20.79
32039;BMP280;18549;42.286;22.688;2022-09-13T08:21:44;95499.41;;;20.86
32039;BMP280;18549;42.286;22.688;2022-09-13T08:24:15;95503.19;;;20.90
32039;BMP280;18549;42.286;22.688;2022-09-13T08:26:43;95497.81;;;21.01
32039;BMP280;18549;42.286;22.688;2022-09-13T08:29:11;95500.50;;;21.07
32039;BMP280;18549;42.286;22.688;2022-09-13T08:31:39;95491.16;;;21.16
32039;BMP280;18549;42.286;22.688;2022-09-13T08:34:09;95487.03;;;21.22
32039;BMP280;18549;42.286;22.688;2022-09-13T08:36:37;95493.47;;;21.33
32039;BMP280;18549;42.286;22.688;2022-09-13T08:39:06;95489.53;;;21.30
32039;BMP280;18549;42.286;22.688;2022-09-13T08:41:52;95478.44;;;21.47
32039;BMP280;18549;42.286;22.688;2022-09-13T08:44:35;95481.87;;;21.54
32039;BMP280;18549;42.286;22.688;2022-09-13T08:47:21;95476.41;;;21.73
32039;BMP280;18549;42.286;22.688;2022-09-13T08:49:59;95475.25;;;21.83
32039;BMP280;18549;42.286;22.688;2022-09-13T08:52:29;95475.38;;;21.89
32039;BMP280;18549;42.286;22.688;2022-09-13T08:55:02;95480.19;;;21.99
32039;BMP280;18549;42.286;22.688;2022-09-13T08:57:41;95474.37;;;21.98
32039;BMP280;18549;42.286;22.688;2022-09-13T09:00:17;95469.06;;;21.93
32039;BMP280;18549;42.286;22.688;2022-09-13T09:03:02;95474.88;;;21.94
32039;BMP280;18549;42.286;22.688;2022-09-13T09:05:41;95474.91;;;21.86
32039;BMP280;18549;42.286;22.688;2022-09-13T09:08:24;95468.47;;;21.83
32039;BMP280;18549;42.286;22.688;2022-09-13T09:10:56;95467.81;;;21.89
32039;BMP280;18549;42.286;22.688;2022-09-13T09:13:29;95459.94;;;22.07
32039;BMP280;18549;42.286;22.688;2022-09-13T09:16:01;95466.09;;;22.12
32039;BMP280;18549;42.286;22.688;2022-09-13T09:18:35;95462.66;;;22.05
32039;BMP280;18549;42.286;22.688;2022-09-13T09:21:03;95462.53;;;21.99
32039;BMP280;18549;42.286;22.688;2022-09-13T09:23:37;95471.16;;;22.04
32039;BMP280;18549;42.286;22.688;2022-09-13T09:26:14;95469.44;;;22.05
32039;BMP280;18549;42.286;22.688;2022-09-13T09:28:46;95471.16;;;22.04
32039;BMP280;18549;42.286;22.688;2022-09-13T09:31:16;95460.28;;;22.04
32039;BMP280;18549;42.286;22.688;2022-09-13T09:33:58;95462.31;;;22.08
32039;BMP280;18549;42.286;22.688;2022-09-13T09:36:33;95459.47;;;22.11
32039;BMP280;18549;42.286;22.688;2022-09-13T09:39:04;95454.75;;;22.08
32039;BMP280;18549;42.286;22.688;2022-09-13T09:41:34;95463.59;;;22.04
32039;BMP280;18549;42.286;22.688;2022-09-13T09:44:15;95457.94;;;22.02
32039;BMP280;18549;42.286;22.688;2022-09-13T09:46:46;95453.19;;;22.07
32039;BMP280;18549;42.286;22.688;2022-09-13T09:49:26;95458.47;;;22.20
32039;BMP280;18549;42.286;22.688;2022-09-13T09:52:24;95455.59;;;22.23
32039;BMP280;18549;42.286;22.688;2022-09-13T09:54:58;95460.59;;;22.31
32039;BMP280;18549;42.286;22.688;2022-09-13T09:57:48;95455.25;;;22.48
32039;BMP280;18549;42.286;22.688;2022-09-13T10:00:19;95444.53;;;22.60
32039;BMP280;18549;42.286;22.688;2022-09-13T10:02:48;95446.34;;;22.66
32039;BMP280;18549;42.286;22.688;2022-09-13T10:05:18;95450.66;;;22.80
32039;BMP280;18549;42.286;22.688;2022-09-13T10:07:52;95443.44;;;22.91
32039;BMP280;18549;42.286;22.688;2022-09-13T10:27:47;95415.72;;;23.47
32039;BMP280;18549;42.286;22.688;2022-09-13T10:30:30;95415.72;;;23.47
32039;BMP280;18549;42.286;22.688;2022-09-13T10:32:59;95415.81;;;22.90
32039;BMP280;18549;42.286;22.688;2022-09-13T10:35:28;95425.31;;;22.88
32039;BMP280;18549;42.286;22.688;2022-09-13T10:37:55;95421.66;;;22.90
32039;BMP280;18549;42.286;22.688;2022-09-13T10:40:26;95416.81;;;23.10
32039;BMP280;18549;42.286;22.688;2022-09-13T10:42:57;95408.47;;;23.23
32039;BMP280;18549;42.286;22.688;2022-09-13T10:45:26;95407.81;;;23.36
32039;BMP280;18549;42.286;22.688;2022-09-13T10:47:54;95404.09;;;23.52
32039;BMP280;18549;42.286;22.688;2022-09-13T10:50:23;95409.75;;;23.69
32039;BMP280;18549;42.286;22.688;2022-09-13T10:52:51;95409.75;;;23.69
32039;BMP280;18549;42.286;22.688;2022-09-13T10:55:34;95412.81;;;23.64
32039;BMP280;18549;42.286;22.688;2022-09-13T10:58:17;95406.63;;;23.52
32039;BMP280;18549;42.286;22.688;2022-09-13T11:04:06;95404.00;;;23.25
32039;BMP280;18549;42.286;22.688;2022-09-13T11:06:40;95404.87;;;23.18
32039;BMP280;18549;42.286;22.688;2022-09-13T11:09:12;95408.66;;;23.08
32039;BMP280;18549;42.286;22.688;2022-09-13T11:11:43;95398.47;;;23.01
32039;BMP280;18549;42.286;22.688;2022-09-13T11:14:27;95395.84;;;22.95
32039;BMP280;18549;42.286;22.688;2022-09-13T11:17:03;95394.00;;;22.89
32039;BMP280;18549;42.286;22.688;2022-09-13T11:19:51;95385.31;;;23.06
32039;BMP280;18549;42.286;22.688;2022-09-13T11:22:39;95368.84;;;23.30
32039;BMP280;18549;42.286;22.688;2022-09-13T11:25:27;95374.06;;;23.64
32039;BMP280;18549;42.286;22.688;2022-09-13T11:28:01;95376.81;;;23.83
32039;BMP280;18549;42.286;22.688;2022-09-13T11:30:34;95377.31;;;23.99
32039;BMP280;18549;42.286;22.688;2022-09-13T11:33:28;95379.78;;;24.14
32039;BMP280;18549;42.286;22.688;2022-09-13T11:36:16;95376.78;;;24.24
32039;BMP280;18549;42.286;22.688;2022-09-13T11:38:58;95368.13;;;24.46
32039;BMP280;18549;42.286;22.688;2022-09-13T11:41:35;95364.38;;;24.69
32039;BMP280;18549;42.286;22.688;2022-09-13T11:44:22;95367.63;;;24.57
32039;BMP280;18549;42.286;22.688;2022-09-13T11:46:57;95364.44;;;24.49
32039;BMP280;18549;42.286;22.688;2022-09-13T11:49:53;95364.03;;;24.45
32039;BMP280;18549;42.286;22.688;2022-09-13T11:52:36;95366.03;;;24.22
32039;BMP280;18549;42.286;22.688;2022-09-13T11:55:13;95368.88;;;24.13
32039;BMP280;18549;42.286;22.688;2022-09-13T11:57:45;95360.28;;;24.14
32039;BMP280;18549;42.286;22.688;2022-09-13T12:00:19;95370.25;;;24.16
32039;BMP280;18549;42.286;22.688;2022-09-13T12:02:56;95360.41;;;24.27
32039;BMP280;18549;42.286;22.688;2022-09-13T12:05:27;95354.09;;;24.44
32039;BMP280;18549;42.286;22.688;2022-09-13T12:08:00;95352.75;;;24.48
32039;BMP280;18549;42.286;22.688;2022-09-13T12:10:33;95351.56;;;24.44
32039;BMP280;18549;42.286;22.688;2022-09-13T12:13:03;95349.31;;;24.61
32039;BMP280;18549;42.286;22.688;2022-09-13T12:15:36;95355.28;;;24.81
32039;BMP280;18549;42.286;22.688;2022-09-13T12:18:10;95347.41;;;25.10
32039;BMP280;18549;42.286;22.688;2022-09-13T12:20:43;95345.72;;;25.29
32039;BMP280;18549;42.286;22.688;2022-09-13T12:23:15;95345.16;;;25.47
32039;BMP280;18549;42.286;22.688;2022-09-13T12:25:48;95341.09;;;25.52
32039;BMP280;18549;42.286;22.688;2022-09-13T12:28:20;95347.00;;;25.59
32039;BMP280;18549;42.286;22.688;2022-09-13T12:30:53;95340.97;;;25.73
32039;BMP280;18549;42.286;22.688;2022-09-13T12:33:26;95342.69;;;25.79
32039;BMP280;18549;42.286;22.688;2022-09-13T12:39:22;95341.72;;;25.92
32039;BMP280;18549;42.286;22.688;2022-09-13T12:44:57;95332.94;;;26.27
32039;BMP280;18549;42.286;22.688;2022-09-13T12:47:39;95332.56;;;26.30
32039;BMP280;18549;42.286;22.688;2022-09-13T12:50:30;95327.44;;;26.43
32039;BMP280;18549;42.286;22.688;2022-09-13T12:53:12;95321.56;;;26.55
32039;BMP280;18549;42.286;22.688;2022-09-13T12:55:59;95336.41;;;26.64
32039;BMP280;18549;42.286;22.688;2022-09-13T12:58:43;95332.44;;;26.75
32039;BMP280;18549;42.286;22.688;2022-09-13T13:01:14;95340.66;;;26.83
32039;BMP280;18549;42.286;22.688;2022-09-13T13:03:50;95334.38;;;26.92
32039;BMP280;18549;42.286;22.688;2022-09-13T13:06:32;95340.41;;;26.97
32039;BMP280;18549;42.286;22.688;2022-09-13T13:09:02;95340.22;;;26.99
32039;BMP280;18549;42.286;22.688;2022-09-13T13:11:43;95335.53;;;26.96
32039;BMP280;18549;42.286;22.688;2022-09-13T13:14:29;95325.12;;;27.04
32039;BMP280;18549;42.286;22.688;2022-09-13T13:19:56;95328.06;;;27.07
32039;BMP280;18549;42.286;22.688;2022-09-13T13:22:50;95323.50;;;27.16
32039;BMP280;18549;42.286;22.688;2022-09-13T13:25:30;95335.56;;;27.26
32039;BMP280;18549;42.286;22.688;2022-09-13T13:27:58;95339.88;;;27.26
32039;BMP280;18549;42.286;22.688;2022-09-13T13:30:49;95347.88;;;27.29
32039;BMP280;18549;42.286;22.688;2022-09-13T13:33:21;95348.00;;;27.04
32039;BMP280;18549;42.286;22.688;2022-09-13T13:35:50;95350.41;;;26.86
32039;BMP280;18549;42.286;22.688;2022-09-13T13:38:41;95350.88;;;26.64
32039;BMP280;18549;42.286;22.688;2022-09-13T13:41:42;95355.19;;;26.57
32039;BMP280;18549;42.286;22.688;2022-09-13T13:47:51;95366.50;;;26.80
32039;BMP280;18549;42.286;22.688;2022-09-13T13:50:20;95362.16;;;26.87
32039;BMP280;18549;42.286;22.688;2022-09-13T13:52:56;95365.47;;;26.94
32039;BMP280;18549;42.286;22.688;2022-09-13T13:55:43;95360.22;;;26.70
32039;BMP280;18549;42.286;22.688;2022-09-13T13:58:24;95366.75;;;26.34
32039;BMP280;18549;42.286;22.688;2022-09-13T14:00:53;95362.06;;;26.24
32039;BMP280;18549;42.286;22.688;2022-09-13T14:03:27;95358.75;;;26.11
32039;BMP280;18549;42.286;22.688;2022-09-13T14:06:07;95360.66;;;25.84
32039;BMP280;18549;42.286;22.688;2022-09-13T14:08:45;95365.94;;;25.69
32039;BMP280;18549;42.286;22.688;2022-09-13T14:11:30;95365.34;;;25.54
32039;BMP280;18549;42.286;22.688;2022-09-13T14:14:10;95373.50;;;25.50
32039;BMP280;18549;42.286;22.688;2022-09-13T14:16:50;95368.41;;;25.44
32039;BMP280;18549;42.286;22.688;2022-09-13T14:19:26;95362.53;;;25.37
32039;BMP280;18549;42.286;22.688;2022-09-13T14:22:12;95361.72;;;25.23
32039;BMP280;18549;42.286;22.688;2022-09-13T14:24:40;95371.59;;;24.99
32039;BMP280;18549;42.286;22.688;2022-09-13T14:27:20;95377.22;;;25.01
32039;BMP280;18549;42.286;22.688;2022-09-13T14:29:50;95371.34;;;24.94
32039;BMP280;18549;42.286;22.688;2022-09-13T14:32:20;95382.09;;;24.69
32039;BMP280;18549;42.286;22.688;2022-09-13T14:34:57;95371.44;;;24.80
32039;BMP280;18549;42.286;22.688;2022-09-13T14:37:28;95376.34;;;24.82
32039;BMP280;18549;42.286;22.688;2022-09-13T14:39:59;95380.16;;;24.71
32039;BMP280;18549;42.286;22.688;2022-09-13T14:42:37;95375.06;;;24.65
32039;BMP280;18549;42.286;22.688;2022-09-13T14:45:11;95375.44;;;24.62
32039;BMP280;18549;42.286;22.688;2022-09-13T14:47:46;95378.34;;;24.59
32039;BMP280;18549;42.286;22.688;2022-09-13T14:50:18;95377.91;;;24.49
32039;BMP280;18549;42.286;22.688;2022-09-13T14:52:49;95378.69;;;24.50
32039;BMP280;18549;42.286;22.688;2022-09-13T14:55:20;95389.75;;;24.42
32039;BMP280;18549;42.286;22.688;2022-09-13T14:57:55;95381.50;;;24.34
32039;BMP280;18549;42.286;22.688;2022-09-13T15:00:26;95386.19;;;24.37
32039;BMP280;18549;42.286;22.688;2022-09-13T15:03:00;95385.00;;;24.33
32039;BMP280;18549;42.286;22.688;2022-09-13T15:05:31;95383.06;;;24.35
32039;BMP280;18549;42.286;22.688;2022-09-13T15:07:58;95381.13;;;24.37
32039;BMP280;18549;42.286;22.688;2022-09-13T15:10:28;95384.69;;;24.42
32039;BMP280;18549;42.286;22.688;2022-09-13T15:13:08;95383.88;;;24.42